Westfield, Wisconsin
Current Conditions -  °F | °C
As of 5:56 AM on Friday 24 Oct 2014 (Local Time) from KY50 Reporting Station
Haze Haze  
Wind Chill: 45°   Ceiling: 300
Heat Index: 48°   Visibility: 4mi
Dew Point: 47°   Wind: 7mph
Humidity: 97%   Direction: 280°W
Pressure: 30.04"   Gusts: NA
Location:  43.88°N, 89.49°W
Report Text: KY50 241056Z AUTO 28006KT 4SM BR OVC003 09/08 A3004 RMK AO2 TSNO T00880083 SLP172
Loading
Personal Weather Stations






























Interactive Weather Map
Tropical Storm Tracking
New forecast layout! Learn more

10-Day Weather Forecast

Advertisements
Track Severe Weather on mobile